createdAt,value
2023-05-06T00:01:25.355Z,7.45
2023-05-06T00:03:52.413Z,8.60
2023-05-06T00:06:19.323Z,7.07
2023-05-06T00:08:46.750Z,6.45
2023-05-06T00:11:13.847Z,7.13
2023-05-06T00:13:41.383Z,7.85
2023-05-06T00:16:08.582Z,7.10
2023-05-06T00:18:35.759Z,7.35
2023-05-06T00:21:02.604Z,8.50
2023-05-06T00:23:29.393Z,8.38
2023-05-06T00:25:56.150Z,8.90
2023-05-06T00:28:23.198Z,8.45
2023-05-06T00:30:52.758Z,8.15
2023-05-06T00:33:19.607Z,8.68
2023-05-06T00:35:46.466Z,8.05
2023-05-06T00:38:16.969Z,7.93
2023-05-06T00:40:43.809Z,8.52
2023-05-06T00:43:10.728Z,8.02
2023-05-06T00:45:38.530Z,7.70
2023-05-06T00:48:06.717Z,9.52
2023-05-06T00:50:35.027Z,9.05
2023-05-06T00:53:04.191Z,8.88
2023-05-06T00:55:32.693Z,9.85
2023-05-06T00:57:59.626Z,8.93
2023-05-06T01:00:26.735Z,8.77
2023-05-06T01:02:53.643Z,10.40
2023-05-06T01:05:23.838Z,11.07
2023-05-06T01:07:56.638Z,9.73
2023-05-06T01:10:33.796Z,8.80
2023-05-06T01:13:39.343Z,8.68
2023-05-06T01:16:08.804Z,10.75
2023-05-06T01:18:38.432Z,10.02
2023-05-06T01:21:05.787Z,8.40
2023-05-06T01:23:57.628Z,9.07
2023-05-06T01:26:25.420Z,9.60
2023-05-06T01:28:52.510Z,10.15
2023-05-06T01:31:47.055Z,9.68
2023-05-06T01:34:27.856Z,9.60
2023-05-06T01:37:26.021Z,9.35
2023-05-06T01:39:56.097Z,10.60
2023-05-06T01:42:24.945Z,9.23
2023-05-06T01:44:54.956Z,9.88
2023-05-06T01:47:22.333Z,9.48
2023-05-06T01:49:49.452Z,8.32
2023-05-06T01:52:16.655Z,8.32
2023-05-06T01:54:47.399Z,10.40
2023-05-06T01:57:14.165Z,9.90
2023-05-06T01:59:41.063Z,9.23
2023-05-06T02:02:08.222Z,11.27
2023-05-06T02:04:35.227Z,11.05
2023-05-06T02:07:02.464Z,10.55
2023-05-06T02:09:29.311Z,10.70
2023-05-06T02:12:01.776Z,9.77
2023-05-06T02:14:28.960Z,10.85
2023-05-06T02:16:57.063Z,10.65
2023-05-06T02:19:23.902Z,10.75
2023-05-06T02:21:50.709Z,11.15
2023-05-06T02:24:17.493Z,10.68
2023-05-06T02:26:44.252Z,11.77
2023-05-06T02:29:11.270Z,10.85
2023-05-06T02:31:38.176Z,11.80
2023-05-06T02:34:05.137Z,10.70
2023-05-06T02:36:32.510Z,12.07
2023-05-06T02:39:00.712Z,12.05
2023-05-06T02:41:27.515Z,13.02
2023-05-06T02:43:54.353Z,12.77
2023-05-06T02:46:23.313Z,13.10
2023-05-06T02:48:50.126Z,11.98
2023-05-06T02:51:17.201Z,12.13
2023-05-06T02:53:44.040Z,11.85
2023-05-06T02:56:11.065Z,11.85
2023-05-06T02:58:37.943Z,11.98
2023-05-06T03:01:04.760Z,12.90
2023-05-06T03:03:33.318Z,10.70
2023-05-06T03:06:00.108Z,12.07
2023-05-06T03:08:26.915Z,11.90
2023-05-06T03:10:55.047Z,12.70
2023-05-06T03:13:22.193Z,12.48
2023-05-06T03:15:54.104Z,10.85
2023-05-06T03:18:21.485Z,11.80
2023-05-06T03:20:49.050Z,11.70
2023-05-06T03:23:16.442Z,13.07
2023-05-06T03:25:43.619Z,12.77
2023-05-06T03:28:11.695Z,13.73
2023-05-06T03:30:40.066Z,14.30
2023-05-06T03:33:08.426Z,12.90
2023-05-06T03:35:36.750Z,13.98
2023-05-06T03:38:03.692Z,13.88
2023-05-06T03:40:49.862Z,14.70
2023-05-06T03:43:17.090Z,14.57
2023-05-06T03:45:46.581Z,15.15
2023-05-06T03:48:14.128Z,14.18
2023-05-06T03:50:43.230Z,14.50
2023-05-06T03:53:10.230Z,13.90
2023-05-06T03:55:40.499Z,14.85
2023-05-06T03:58:07.455Z,13.30
2023-05-06T04:00:34.388Z,15.40
2023-05-06T04:03:01.267Z,13.80
2023-05-06T04:05:34.626Z,14.05
2023-05-06T04:08:01.974Z,13.15
2023-05-06T04:10:29.239Z,13.05
2023-05-06T04:13:02.168Z,13.13
2023-05-06T04:15:36.598Z,14.45
2023-05-06T04:18:08.311Z,12.33
2023-05-06T04:20:38.095Z,13.43
2023-05-06T04:23:05.030Z,14.45
2023-05-06T04:25:32.834Z,15.13
2023-05-06T04:27:59.993Z,14.48
2023-05-06T04:30:27.252Z,14.32
2023-05-06T04:32:54.335Z,15.82
2023-05-06T04:35:21.791Z,13.82
2023-05-06T04:37:48.971Z,16.75
2023-05-06T04:40:23.669Z,18.52
2023-05-06T04:42:52.420Z,15.40
2023-05-06T04:45:24.364Z,16.33
2023-05-06T04:47:52.520Z,15.52
2023-05-06T04:50:20.052Z,15.15
2023-05-06T04:52:49.128Z,17.73
2023-05-06T04:55:18.566Z,13.73
2023-05-06T04:57:50.006Z,15.38
2023-05-06T05:00:17.410Z,16.48
2023-05-06T05:02:44.294Z,18.40
2023-05-06T05:05:12.373Z,17.27
2023-05-06T05:07:41.266Z,15.15
2023-05-06T05:10:09.400Z,15.30
2023-05-06T05:12:37.603Z,16.52
2023-05-06T05:15:04.863Z,14.52
2023-05-06T05:17:32.512Z,16.92
2023-05-06T05:19:59.564Z,16.50
2023-05-06T05:22:27.430Z,15.60
2023-05-06T05:24:54.713Z,15.82
2023-05-06T05:27:21.745Z,15.43
2023-05-06T05:29:48.675Z,15.40
2023-05-06T05:32:16.477Z,15.13
2023-05-06T05:34:43.567Z,15.88
2023-05-06T05:37:11.345Z,14.90
2023-05-06T05:39:39.113Z,14.95
2023-05-06T05:42:07.069Z,15.32
2023-05-06T05:44:35.738Z,13.52
2023-05-06T05:47:04.014Z,15.88
2023-05-06T05:49:31.986Z,16.33
2023-05-06T05:51:58.829Z,15.40
2023-05-06T05:54:27.264Z,16.38
2023-05-06T05:56:54.148Z,17.02
2023-05-06T05:59:21.752Z,17.25
2023-05-06T06:01:54.346Z,17.55
2023-05-06T06:04:21.328Z,15.55
2023-05-06T06:06:48.141Z,16.23
2023-05-06T06:09:16.712Z,15.43
2023-05-06T06:11:44.048Z,17.77
2023-05-06T06:14:11.534Z,18.05
2023-05-06T06:16:38.759Z,19.27
2023-05-06T06:19:06.560Z,18.98
2023-05-06T06:21:33.452Z,19.85
2023-05-06T06:24:01.178Z,18.88
2023-05-06T06:26:28.074Z,18.42
2023-05-06T06:28:54.889Z,17.95
2023-05-06T06:31:21.790Z,16.88
2023-05-06T06:33:48.698Z,18.15
2023-05-06T06:36:15.587Z,17.98
2023-05-06T06:38:42.571Z,16.52
2023-05-06T06:41:11.019Z,17.35
2023-05-06T06:43:37.862Z,16.45
2023-05-06T06:46:16.996Z,17.17
2023-05-06T06:48:43.963Z,16.40
2023-05-06T06:51:10.970Z,17.52
2023-05-06T06:53:37.764Z,18.30
2023-05-06T06:56:08.351Z,18.52
2023-05-06T06:58:36.798Z,16.75
2023-05-06T07:01:03.662Z,16.35
2023-05-06T07:03:30.440Z,16.65
2023-05-06T07:05:57.227Z,17.35
2023-05-06T07:08:24.017Z,19.75
2023-05-06T07:10:53.702Z,18.45
2023-05-06T07:13:22.986Z,17.63
2023-05-06T07:15:49.967Z,17.20
2023-05-06T07:18:19.997Z,18.08
2023-05-06T07:20:46.838Z,16.15
2023-05-06T07:23:13.608Z,16.60
2023-05-06T07:25:43.299Z,17.38
2023-05-06T07:28:10.144Z,17.27
2023-05-06T07:30:40.185Z,17.23
2023-05-06T07:33:07.146Z,15.55
2023-05-06T07:35:34.062Z,18.48
2023-05-06T07:38:02.762Z,16.98
2023-05-06T07:40:29.663Z,18.48
2023-05-06T07:42:56.473Z,14.88
2023-05-06T07:45:27.346Z,15.13
2023-05-06T07:47:54.461Z,16.17
2023-05-06T07:50:21.411Z,14.95
2023-05-06T07:52:48.154Z,17.58
2023-05-06T07:55:14.965Z,18.67
2023-05-06T07:57:41.774Z,18.38
2023-05-06T08:00:10.058Z,19.52
2023-05-06T08:02:44.175Z,17.67
2023-05-06T08:05:11.745Z,17.98
2023-05-06T08:07:41.104Z,16.67
2023-05-06T08:10:09.324Z,19.00
2023-05-06T08:12:36.531Z,18.65
2023-05-06T08:15:03.917Z,18.33
2023-05-06T08:17:30.778Z,20.10
2023-05-06T08:19:57.656Z,17.20
2023-05-06T08:22:24.478Z,18.30
2023-05-06T08:24:51.385Z,17.35
2023-05-06T08:27:18.209Z,17.95
2023-05-06T08:29:45.084Z,18.08
2023-05-06T08:32:12.118Z,18.00
2023-05-06T08:34:39.023Z,16.35
2023-05-06T08:37:06.361Z,16.17
2023-05-06T08:39:33.285Z,14.82
2023-05-06T08:42:02.110Z,18.10
2023-05-06T08:44:33.477Z,18.38
2023-05-06T08:47:00.380Z,19.50
2023-05-06T08:49:30.049Z,16.58
2023-05-06T08:51:57.207Z,19.67
2023-05-06T08:54:26.549Z,18.40
2023-05-06T08:56:56.306Z,18.42
2023-05-06T08:59:30.434Z,17.02
2023-05-06T09:01:57.250Z,16.85
2023-05-06T09:04:24.088Z,15.75
2023-05-06T09:06:50.891Z,15.55
2023-05-06T09:09:17.664Z,15.73
2023-05-06T09:12:03.328Z,17.55
2023-05-06T09:14:30.186Z,15.73
2023-05-06T09:16:58.062Z,15.90
2023-05-06T09:19:25.790Z,16.08
2023-05-06T09:21:52.736Z,15.57
2023-05-06T09:24:20.187Z,17.13
2023-05-06T09:26:47.488Z,16.95
2023-05-06T09:29:14.677Z,16.88
2023-05-06T09:31:43.730Z,15.05
2023-05-06T09:34:11.333Z,15.45
2023-05-06T09:36:38.310Z,15.98
2023-05-06T09:39:06.127Z,13.60
2023-05-06T09:41:33.448Z,12.95
2023-05-06T09:44:00.410Z,13.93
2023-05-06T09:46:30.552Z,13.80
2023-05-06T09:48:58.649Z,13.30
2023-05-06T09:51:27.918Z,12.25
2023-05-06T09:53:57.110Z,13.05
2023-05-06T09:56:24.778Z,15.73
2023-05-06T09:58:54.439Z,14.80
2023-05-06T10:01:35.418Z,13.55
2023-05-06T10:04:09.839Z,16.05
2023-05-06T10:06:46.958Z,13.98
2023-05-06T10:09:15.026Z,15.73
2023-05-06T10:11:43.621Z,14.27
2023-05-06T10:14:11.179Z,14.25
2023-05-06T10:16:40.387Z,13.18
2023-05-06T10:19:11.250Z,16.15
2023-05-06T10:21:41.581Z,13.85
2023-05-06T10:24:12.471Z,14.10
2023-05-06T10:26:40.840Z,14.88
2023-05-06T10:29:10.549Z,15.77
2023-05-06T10:31:46.244Z,13.82
2023-05-06T10:34:13.637Z,16.63
2023-05-06T10:36:43.046Z,16.42
2023-05-06T10:39:12.949Z,15.38
2023-05-06T10:41:40.125Z,15.95
2023-05-06T10:44:07.098Z,15.38
2023-05-06T10:46:58.184Z,15.15
2023-05-06T10:49:25.261Z,15.25
2023-05-06T10:52:20.784Z,15.10
2023-05-06T10:54:50.517Z,13.50
2023-05-06T10:57:17.693Z,14.63
2023-05-06T10:59:48.732Z,14.05
2023-05-06T11:02:19.937Z,13.75
2023-05-06T11:04:52.657Z,15.98
2023-05-06T11:07:27.022Z,14.63
2023-05-06T11:09:56.713Z,16.92
2023-05-06T11:12:46.577Z,15.55
2023-05-06T11:15:40.549Z,16.23
2023-05-06T11:18:29.353Z,15.50
2023-05-06T11:21:07.837Z,20.38
2023-05-06T11:23:49.643Z,17.25
2023-05-06T11:26:16.886Z,17.40
2023-05-06T11:28:47.747Z,18.50
2023-05-06T11:31:15.693Z,19.02
2023-05-06T11:33:47.463Z,18.55
2023-05-06T11:36:16.493Z,18.88
2023-05-06T11:38:52.607Z,17.27
2023-05-06T11:41:19.890Z,16.38
2023-05-06T11:43:51.256Z,16.60
2023-05-06T11:46:22.682Z,18.25
2023-05-06T11:48:50.505Z,16.45
2023-05-06T11:51:22.662Z,17.20
2023-05-06T11:53:49.473Z,15.05
2023-05-06T11:56:16.336Z,13.88
2023-05-06T11:58:44.065Z,15.60
2023-05-06T12:01:10.879Z,15.45
2023-05-06T12:03:37.982Z,18.67
2023-05-06T12:06:05.032Z,16.10
2023-05-06T12:08:36.239Z,15.77
2023-05-06T12:11:06.334Z,15.73
2023-05-06T12:13:36.595Z,13.65
2023-05-06T12:16:05.718Z,13.80
2023-05-06T12:18:32.998Z,15.48
2023-05-06T12:21:05.958Z,15.43
2023-05-06T12:23:33.209Z,12.55
2023-05-06T12:26:04.907Z,13.77
2023-05-06T12:28:33.736Z,13.82
2023-05-06T12:31:17.465Z,15.30
2023-05-06T12:33:46.303Z,13.32
2023-05-06T12:36:13.231Z,14.80
2023-05-06T12:38:59.850Z,14.55
2023-05-06T12:41:41.113Z,13.77
2023-05-06T12:44:34.070Z,18.05
2023-05-06T12:47:02.988Z,15.40
2023-05-06T12:49:53.857Z,13.48
2023-05-06T12:52:22.716Z,16.90
2023-05-06T12:54:49.946Z,16.52
2023-05-06T12:57:17.033Z,14.63
2023-05-06T12:59:48.470Z,14.13
2023-05-06T13:02:16.169Z,16.77
2023-05-06T13:04:44.351Z,13.30
2023-05-06T13:07:11.988Z,14.50
2023-05-06T13:09:38.827Z,17.17
2023-05-06T13:12:06.539Z,15.13
2023-05-06T13:14:33.336Z,15.82
2023-05-06T13:17:01.254Z,16.52
2023-05-06T13:19:32.737Z,14.98
2023-05-06T13:22:01.085Z,17.15
2023-05-06T13:24:28.549Z,14.68
2023-05-06T13:26:57.051Z,15.50
2023-05-06T13:29:24.431Z,14.90
2023-05-06T13:31:51.580Z,17.17
2023-05-06T13:34:20.135Z,13.90
2023-05-06T13:36:49.179Z,16.73
2023-05-06T13:39:16.338Z,13.52
2023-05-06T13:41:45.898Z,15.07
2023-05-06T13:44:12.687Z,12.55
2023-05-06T13:46:39.785Z,14.18
2023-05-06T13:49:06.561Z,14.32
2023-05-06T13:51:34.586Z,14.70
2023-05-06T13:54:02.739Z,13.18
2023-05-06T13:56:29.736Z,14.52
2023-05-06T13:58:56.649Z,13.60
2023-05-06T14:01:24.535Z,13.68
2023-05-06T14:03:51.647Z,11.95
2023-05-06T14:06:19.039Z,13.30
2023-05-06T14:08:46.202Z,14.70
2023-05-06T14:11:15.949Z,15.23
2023-05-06T14:13:42.722Z,14.60
2023-05-06T14:16:09.632Z,12.95
2023-05-06T14:18:36.417Z,13.27
2023-05-06T14:21:03.666Z,12.25
2023-05-06T14:23:30.645Z,11.77
2023-05-06T14:25:57.436Z,12.45
2023-05-06T14:28:24.271Z,12.52
2023-05-06T14:30:51.769Z,14.20
2023-05-06T14:33:18.575Z,11.57
2023-05-06T14:35:46.312Z,10.82
2023-05-06T14:38:13.176Z,10.65
2023-05-06T14:40:39.960Z,10.90
2023-05-06T14:43:07.641Z,11.80
2023-05-06T14:45:34.822Z,9.93
2023-05-06T14:48:01.914Z,12.32
2023-05-06T14:50:29.579Z,12.77
2023-05-06T14:52:56.470Z,10.88
2023-05-06T14:55:23.353Z,9.63
2023-05-06T14:57:50.234Z,10.77
2023-05-06T15:00:17.653Z,11.73
2023-05-06T15:02:44.549Z,12.98
2023-05-06T15:05:12.234Z,11.25
2023-05-06T15:07:39.494Z,12.80
2023-05-06T15:10:06.890Z,13.85
2023-05-06T15:12:34.255Z,13.10
2023-05-06T15:15:01.044Z,11.75
2023-05-06T15:17:30.571Z,13.00
2023-05-06T15:19:57.322Z,14.57
2023-05-06T15:22:24.058Z,14.55
2023-05-06T15:24:50.848Z,12.55
2023-05-06T15:27:17.880Z,12.95
2023-05-06T15:29:44.693Z,12.90
2023-05-06T15:32:11.529Z,11.55
2023-05-06T15:34:38.533Z,10.48
2023-05-06T15:37:05.438Z,8.70
2023-05-06T15:39:37.293Z,10.43
2023-05-06T15:42:04.354Z,10.93
2023-05-06T15:44:32.507Z,10.27
2023-05-06T15:46:59.326Z,14.05
2023-05-06T15:49:51.142Z,15.25
2023-05-06T15:52:12.916Z,13.52
2023-05-06T15:54:40.978Z,9.68
2023-05-06T15:57:09.681Z,13.95
2023-05-06T15:59:36.466Z,14.15
2023-05-06T16:04:33.541Z,10.93
2023-05-06T16:07:00.470Z,11.02
2023-05-06T16:09:27.289Z,11.85
2023-05-06T16:11:54.879Z,11.30
2023-05-06T16:14:21.772Z,11.20
2023-05-06T16:16:48.578Z,11.32
2023-05-06T16:19:15.457Z,11.05
2023-05-06T16:21:42.254Z,10.85
2023-05-06T16:24:09.089Z,11.35
2023-05-06T16:26:36.022Z,13.68
2023-05-06T16:29:02.904Z,12.32
2023-05-06T16:31:31.982Z,13.60
2023-05-06T16:33:58.906Z,14.85
2023-05-06T16:36:29.940Z,13.75
2023-05-06T16:38:56.822Z,13.15
2023-05-06T16:41:23.643Z,12.52
2023-05-06T16:43:52.619Z,13.13
2023-05-06T16:46:19.895Z,13.00
2023-05-06T16:48:47.717Z,12.70
2023-05-06T16:51:16.339Z,12.15
2023-05-06T16:53:43.586Z,13.07
2023-05-06T16:56:10.767Z,13.10
2023-05-06T16:58:37.609Z,12.23
2023-05-06T17:01:07.865Z,12.82
2023-05-06T17:03:37.781Z,12.98
2023-05-06T17:06:05.176Z,13.43
2023-05-06T17:08:36.066Z,12.63
2023-05-06T17:11:06.255Z,12.75
2023-05-06T17:13:33.331Z,13.43
2023-05-06T17:16:00.180Z,14.13
2023-05-06T17:18:27.044Z,15.10
2023-05-06T17:20:56.617Z,12.90
2023-05-06T17:23:24.666Z,12.65
2023-05-06T17:25:51.808Z,13.10
2023-05-06T17:28:19.008Z,12.88
2023-05-06T17:30:46.337Z,11.82
2023-05-06T17:33:13.257Z,12.52
2023-05-06T17:35:40.122Z,13.10
2023-05-06T17:38:07.764Z,11.65
2023-05-06T17:40:34.564Z,11.00
2023-05-06T17:43:01.563Z,11.13
2023-05-06T17:45:28.576Z,11.05
2023-05-06T17:47:56.462Z,12.43
2023-05-06T17:50:23.716Z,13.10
2023-05-06T17:52:52.910Z,10.68
2023-05-06T17:55:21.844Z,8.00
2023-05-06T17:57:49.204Z,8.50
2023-05-06T18:00:17.037Z,7.88
2023-05-06T18:02:44.653Z,8.55
2023-05-06T18:05:12.021Z,9.50
2023-05-06T18:07:39.333Z,7.65
2023-05-06T18:10:07.065Z,6.95
2023-05-06T18:12:33.947Z,7.57
2023-05-06T18:15:01.352Z,6.80
2023-05-06T18:17:28.325Z,7.88
2023-05-06T18:19:55.515Z,7.25
2023-05-06T18:22:22.870Z,7.05
2023-05-06T18:24:54.844Z,7.70
2023-05-06T18:27:22.192Z,7.65
2023-05-06T18:29:49.034Z,12.55
2023-05-06T18:32:15.865Z,9.82
2023-05-06T18:34:42.665Z,10.85
2023-05-06T18:37:09.474Z,8.32
2023-05-06T18:39:41.695Z,7.28
2023-05-06T18:42:08.845Z,8.30
2023-05-06T18:44:35.710Z,8.40
2023-05-06T18:47:02.507Z,8.63
2023-05-06T18:49:30.773Z,10.15
2023-05-06T18:51:57.678Z,9.60
2023-05-06T18:54:24.690Z,8.48
2023-05-06T18:56:58.651Z,8.60
2023-05-06T18:59:25.850Z,9.30
2023-05-06T19:01:52.631Z,8.73
2023-05-06T19:04:19.464Z,9.43
2023-05-06T19:06:46.318Z,9.23
2023-05-06T19:09:13.488Z,9.20
2023-05-06T19:11:40.365Z,9.05
2023-05-06T19:14:08.302Z,9.05
2023-05-06T19:16:35.165Z,9.15
2023-05-06T19:19:02.828Z,10.77
2023-05-06T19:21:29.671Z,11.02
2023-05-06T19:23:59.743Z,12.27
2023-05-06T19:26:27.639Z,11.20
2023-05-06T19:28:54.413Z,12.77
2023-05-06T19:31:21.376Z,12.00
2023-05-06T19:33:51.258Z,10.55
2023-05-06T19:36:18.067Z,11.20
2023-05-06T19:38:44.886Z,12.93
2023-05-06T19:41:11.766Z,10.77
2023-05-06T19:43:42.980Z,12.07
2023-05-06T19:46:11.187Z,10.48
2023-05-06T19:48:39.103Z,10.38
2023-05-06T19:51:06.978Z,10.02
2023-05-06T19:53:34.532Z,11.25
2023-05-06T19:56:12.489Z,11.60
2023-05-06T19:58:39.857Z,12.45
2023-05-06T20:01:06.673Z,13.02
2023-05-06T20:03:33.806Z,13.02
2023-05-06T20:06:01.096Z,11.38
2023-05-06T20:08:28.190Z,10.73
2023-05-06T20:10:55.135Z,12.25
2023-05-06T20:13:22.046Z,15.80
2023-05-06T20:15:49.012Z,15.35
2023-05-06T20:18:16.243Z,16.48
